Bookmark and Share
Track history (hours):
 

Ft Sturla

Last reported at 2014-Apr-20 02:20 UTC. Time now 2014-Apr-20 03:15 UTC.
Position N 39°33' E 002°38'.

Length 120 m; draft 7.2 m.

Type: Ship (hazmat cat A). MMSI: 247282200.

NotesDate/timePositionNaut miles runAvg speedWind from/ knotsBaromVisibWave heightAir tempDewpointWater temp
2014-Apr-20 02:20N 39°33' E 002°38'0 0.0
2014-Apr-19 23:32N 39°33' E 002°38'0 0.0
2014-Apr-19 22:10N 39°33' E 002°38'0 0.0
2014-Apr-19 21:08N 39°33' E 002°38'0 0.0
2014-Apr-19 20:23N 39°33' E 002°38'0 0.0
2014-Apr-19 18:30N 39°33' E 002°38'0 0.0
2014-Apr-19 17:15N 39°33' E 002°38'0 0.0
2014-Apr-19 16:33N 39°33' E 002°38'3 0.6
2014-Apr-19 12:17N 39°30' E 002°38'811.7
2014-Apr-19 11:33N 39°23' E 002°32'1110.8
2014-Apr-19 10:33N 39°27' E 002°19'1210.3
2014-Apr-19 09:25N 39°36' E 002°11'1012.1
2014-Apr-19 08:33N 39°47' E 002°11'1212.0
2014-Apr-19 07:33N 39°59' E 002°11'1212.6
2014-Apr-19 06:34N 40°11' E 002°11'1212.3
2014-Apr-19 05:33N 40°24' E 002°11'1211.8
2014-Apr-19 04:33N 40°35' E 002°11'1212.1
2014-Apr-19 03:33N 40°47' E 002°11'1212.1
2014-Apr-19 02:33N 40°60' E 002°10'1212.1
2014-Apr-19 01:32N 41°12' E 002°11'9 2.9
2014-Apr-18 22:33N 41°20' E 002°10'0 0.0
2014-Apr-18 21:33N 41°20' E 002°10'0 0.0
2014-Apr-18 20:09N 41°20' E 002°10'0 0.0
2014-Apr-18 19:33N 41°20' E 002°10'0 0.0
2014-Apr-18 15:27N 41°20' E 002°10'0 0.0
2014-Apr-18 14:03N 41°20' E 002°10'0 0.0
2014-Apr-18 13:27N 41°20' E 002°10'0 0.0
2014-Apr-18 12:09N 41°20' E 002°10'0 0.0
2014-Apr-18 11:15N 41°20' E 002°10'0 0.0
2014-Apr-18 10:27N 41°20' E 002°10'0 0.0
2014-Apr-18 08:03N 41°20' E 002°10'0 0.2
2014-Apr-18 06:29N 41°20' E 002°10'1 0.4
2014-Apr-18 03:30N 41°19' E 002°11'0 0.0
2014-Apr-17 07:05N 41°19' E 002°11'0 0.0
2014-Apr-16 04:17N 41°19' E 002°11'0 0.0
2014-Apr-16 02:30N 41°19' E 002°11'0 0.1
2014-Apr-16 01:30N 41°19' E 002°11'0 0.0
2014-Apr-16 00:11N 41°19' E 002°11'0 0.0
2014-Apr-15 23:18N 41°19' E 002°11'0 0.0
2014-Apr-15 20:17N 41°19' E 002°11'0 0.0
2014-Apr-15 09:30N 41°19' E 002°11'0 0.0
2014-Apr-15 08:30N 41°19' E 002°11'0 0.0
2014-Apr-15 03:30N 41°19' E 002°11'0 0.0
2014-Apr-15 00:30N 41°19' E 002°11'0 0.0
2014-Apr-14 22:33N 41°19' E 002°11'0 0.0
2014-Apr-14 21:33N 41°19' E 002°11'0 0.0
2014-Apr-14 20:30N 41°19' E 002°11'0 0.0
2014-Apr-14 13:33N 41°19' E 002°11'71 4.6
2014-Apr-13 22:09N 41°58' E 003°31'813.4
2014-Apr-13 21:33N 42°04' E 003°38'1312.7
2014-Apr-13 20:33N 42°13' E 003°50'2612.3
2014-Apr-13 18:26N 42°31' E 004°15'1213.2
2014-Apr-13 17:33N 42°41' E 004°24'1211.9
2014-Apr-13 16:32N 42°50' E 004°35'1212.0
2014-Apr-13 15:33N 42°59' E 004°46'1211.8
2014-Apr-13 14:34N 43°07' E 004°57'5 5.3
2014-Apr-13 13:33N 43°12' E 004°60'1110.9
2014-Apr-13 12:34N 43°23' E 004°58'1 1.4
2014-Apr-13 11:33N 43°24' E 004°60'0 0.0
2014-Apr-13 10:33N 43°24' E 004°60'0 0.0
2014-Apr-13 09:30N 43°24' E 004°60'0 0.0
2014-Apr-13 08:33N 43°24' E 004°60'0 0.0
2014-Apr-13 07:33N 43°24' E 004°60'0 0.0
2014-Apr-13 06:30N 43°24' E 004°60'0 0.0
2014-Apr-13 05:33N 43°24' E 004°60'0 0.0
2014-Apr-13 04:33N 43°24' E 004°60'0 0.0
2014-Apr-13 03:33N 43°24' E 004°60'0 0.0
2014-Apr-13 02:33N 43°24' E 004°60'0 0.0
2014-Apr-13 01:30N 43°24' E 004°60'0 0.0
2014-Apr-13 00:33N 43°24' E 004°60'0 0.0
2014-Apr-12 23:33N 43°24' E 004°60'0 0.0
2014-Apr-12 22:33N 43°24' E 004°60'0 0.0
2014-Apr-12 21:33N 43°24' E 004°60'0 0.0
2014-Apr-12 20:33N 43°24' E 004°60'0 0.0
2014-Apr-12 19:33N 43°24' E 004°60'0 0.0
2014-Apr-12 18:33N 43°24' E 004°60'0 0.0
2014-Apr-12 17:33N 43°24' E 004°60'0 0.0
2014-Apr-12 16:33N 43°24' E 004°60'0 0.0
2014-Apr-12 15:33N 43°24' E 004°60'0 0.0
2014-Apr-12 14:33N 43°24' E 004°60'1 1.1
2014-Apr-12 13:34N 43°23' E 004°58'0 0.2
2014-Apr-12 12:32N 43°24' E 004°58'0 0.1
2014-Apr-12 11:32N 43°24' E 004°58'0 0.1
2014-Apr-12 10:32N 43°23' E 004°58'0 0.0
2014-Apr-12 09:32N 43°23' E 004°58'0 0.0
2014-Apr-12 08:32N 43°23' E 004°58'0 0.0
2014-Apr-12 07:32N 43°23' E 004°58'0 0.0
2014-Apr-12 06:33N 43°23' E 004°58'0 0.0
2014-Apr-12 05:33N 43°23' E 004°58'0 0.0
2014-Apr-12 04:33N 43°23' E 004°58'0 0.0
2014-Apr-12 03:33N 43°23' E 004°58'5 4.7
2014-Apr-12 02:33N 43°19' E 004°59'1211.5
2014-Apr-12 01:33N 43°08' E 005°05'1311.8
2014-Apr-12 00:24N 42°56' E 005°14'3612.1
2014-Apr-11 21:27N 42°25' E 005°38'1112.0
2014-Apr-11 20:33N 42°16' E 005°45'1212.4
2014-Apr-11 19:33N 42°05' E 005°53'2612.0
2014-Apr-11 17:23N 41°42' E 006°10'1212.0
2014-Apr-11 16:25N 41°32' E 006°18'1111.6
2014-Apr-11 15:29N 41°23' E 006°25'13211.8
2014-Apr-11 04:17N 39°28' E 007°51'2511.7
2014-Apr-11 02:08N 39°07' E 008°08'2211.9
2014-Apr-11 00:18N 38°48' E 008°22'1411.8
2014-Apr-10 23:05N 38°42' E 008°38'611.9
2014-Apr-10 22:33N 38°40' E 008°46'1311.9
2014-Apr-10 21:28N 38°35' E 009°02'1312.2
2014-Apr-10 20:26N 38°30' E 009°17'  

Dump ship's entire track history

sailing weather and tide predictions

Ft Sturla — IBXV — position and weather